»·PEaware :: N982CA KAJO-KVCV

N982CA :: KAJO-KVCV

FLIGHT INFORMATION

Flight Status: Arrived
Operator: Privately registered:
United States
More flights under this callsign
Pilot: David C. (25479)
Aircraft: Unknown
(172R)
More flights by this aircraft type
Origin: KAJO Corona Mun
United States
Destination: KVCV Socal Logistics
United States
More flights between these airports :: More routes between these airports
Route: +PDZ V442 APLES
File this flight plan on PilotEdge
Remarks:
Altitude:
(Current/Filed)
9,000ft
Speed:
(Current/Filed)
120kts
Departed: 12-Oct-20 07:17 PM
Arrived: 12-Oct-20 08:25 PM
Distance/Time
Traveled:
43nm/1:08
Distance/Time
To Go:
Arrived

Flight Plot

Page will automatically refresh every two minutes.


Map Options




Map Legend


Flown Route
Filed Route
Departure Airport
Arrival Airport
Navaid (VOR, NDB)
Fix

Horizontal Profiles

Position Reports

Time Latitude Longitude Heading Altitude Ground
Speed
12-Oct-20 19:09 33.896874 -117.597187 350 536ft 0kts
12-Oct-20 19:10 33.896874 -117.597187 350 536ft 0kts
12-Oct-20 19:11 33.896874 -117.597187 350 536ft 0kts
12-Oct-20 19:12 33.896874 -117.597187 350 536ft 0kts
12-Oct-20 19:13 33.897375 -117.597424 328 537ft 8kts
12-Oct-20 19:14 33.897414 -117.597454 327 537ft 0kts
12-Oct-20 19:15 33.897414 -117.597454 327 537ft 0kts
12-Oct-20 19:16 33.897543 -117.609344 269 630ft 86kts
12-Oct-20 19:17 33.907503 -117.632417 5 1146ft 102kts
12-Oct-20 19:18 33.914932 -117.601561 86 1640ft 107kts
12-Oct-20 19:19 33.916036 -117.565724 81 2140ft 107kts
12-Oct-20 19:20 33.921544 -117.530996 67 2637ft 104kts
12-Oct-20 19:21 33.936439 -117.501693 89 3145ft 105kts
12-Oct-20 19:22 33.919845 -117.511985 241 3647ft 111kts
12-Oct-20 19:23 33.904129 -117.544750 255 3981ft 121kts
12-Oct-20 19:24 33.927509 -117.555139 49 4001ft 120kts
12-Oct-20 19:25 33.944863 -117.524064 61 4441ft 105kts
12-Oct-20 19:26 33.925657 -117.525638 223 4945ft 107kts
12-Oct-20 19:27 33.906746 -117.547145 313 5447ft 99kts
12-Oct-20 19:28 33.924824 -117.529656 52 5949ft 96kts
12-Oct-20 19:29 33.933287 -117.503551 158 6458ft 98kts
12-Oct-20 19:30 33.912818 -117.523687 221 6952ft 100kts
12-Oct-20 19:31 33.903778 -117.546158 5 7458ft 86kts
12-Oct-20 19:32 33.922785 -117.530173 41 7947ft 83kts
12-Oct-20 19:33 33.942691 -117.516813 27 8448ft 78kts
12-Oct-20 19:34 33.964615 -117.503739 27 8753ft 95kts
12-Oct-20 19:35 33.989146 -117.488953 27 8990ft 104kts
12-Oct-20 19:36 34.016638 -117.472276 27 9003ft 113kts
12-Oct-20 19:37 34.045045 -117.454999 27 9011ft 115kts
12-Oct-20 19:39 34.073630 -117.437562 27 9014ft 115kts
12-Oct-20 19:40 34.102054 -117.420243 27 9019ft 114kts
12-Oct-20 19:41 34.130413 -117.402923 27 9023ft 114kts
12-Oct-20 19:42 34.158856 -117.385539 27 9005ft 116kts
12-Oct-20 19:43 34.187446 -117.367978 27 9002ft 115kts
12-Oct-20 19:44 34.215834 -117.350580 27 8997ft 113kts
12-Oct-20 19:45 34.244010 -117.333132 27 9004ft 113kts
12-Oct-20 19:46 34.272426 -117.315609 27 9027ft 116kts
12-Oct-20 19:47 34.301144 -117.297766 27 9006ft 115kts
12-Oct-20 19:48 34.329817 -117.279918 27 8960ft 119kts
12-Oct-20 19:49 34.358344 -117.262080 27 9003ft 114kts
12-Oct-20 19:50 34.386801 -117.244586 24 9003ft 115kts
12-Oct-20 19:51 34.415858 -117.228801 24 9006ft 114kts
12-Oct-20 19:52 34.444602 -117.213046 24 8521ft 95kts
12-Oct-20 19:53 34.474730 -117.196173 24 8057ft 127kts
12-Oct-20 19:54 34.505446 -117.178718 24 8005ft 118kts
12-Oct-20 19:54 34.530062 -117.164637 24 8001ft 117kts
12-Oct-20 19:56 34.563924 -117.148770 12 7589ft 102kts
12-Oct-20 19:56 34.591496 -117.142595 2 7173ft 130kts
12-Oct-20 19:58 34.633769 -117.148817 349 6641ft 129kts
12-Oct-20 19:58 34.660851 -117.160013 333 6610ft 121kts
12-Oct-20 19:59 34.691146 -117.177369 335 6603ft 119kts
12-Oct-20 20:00 34.719624 -117.197528 324 6609ft 120kts
12-Oct-20 20:01 34.746213 -117.223545 311 6406ft 130kts
12-Oct-20 20:02 34.766176 -117.254545 304 5898ft 89kts
12-Oct-20 20:03 34.778274 -117.279680 297 5433ft 105kts
12-Oct-20 20:04 34.790618 -117.318323 281 5205ft 124kts
12-Oct-20 20:05 34.788664 -117.357146 226 4504ft 129kts
12-Oct-20 20:06 34.756589 -117.376556 192 4307ft 127kts
12-Oct-20 20:07 34.721743 -117.381755 184 4298ft 126kts
12-Oct-20 20:08 34.691721 -117.384600 184 3709ft 119kts
12-Oct-20 20:09 34.658698 -117.387327 179 3227ft 123kts
12-Oct-20 20:10 34.624747 -117.386426 178 3243ft 120kts
12-Oct-20 20:11 34.591927 -117.385578 178 3505ft 121kts
12-Oct-20 20:12 34.592509 -117.410613 312 4008ft 103kts
12-Oct-20 20:13 34.611335 -117.436522 313 4514ft 102kts
12-Oct-20 20:14 34.630122 -117.462444 312 5014ft 101kts
12-Oct-20 20:15 34.648677 -117.488022 312 5508ft 100kts
12-Oct-20 20:16 34.662007 -117.477196 105 5696ft 120kts
12-Oct-20 20:17 34.638180 -117.452884 149 5225ft 122kts
12-Oct-20 20:18 34.610713 -117.436116 161 4957ft 100kts
12-Oct-20 20:19 34.588219 -117.425819 145 4106ft 78kts
12-Oct-20 20:20 34.584904 -117.403494 59 3855ft 82kts
12-Oct-20 20:21 34.602173 -117.388961 37 3735ft 81kts
12-Oct-20 20:22 34.615966 -117.366208 104 3496ft 88kts
12-Oct-20 20:23 34.598257 -117.369246 229 2856ft 57kts
12-Oct-20 20:24 34.594177 -117.372674 182 2860ft 0kts
12-Oct-20 20:25 34.593295 -117.372628 179 2860ft 18kts
12-Oct-20 20:26 34.589333 -117.375012 213 2866ft 0kts
12-Oct-20 20:27 34.589333 -117.375012 213 2866ft 0kts
12-Oct-20 20:28 34.589333 -117.375012 213 2866ft 0kts
12-Oct-20 20:29 34.589333 -117.375012 213 2866ft 0kts
12-Oct-20 20:30 34.589333 -117.375012 213 2866ft 0kts
12-Oct-20 20:31 34.589333 -117.375012 213 2866ft 0kts
12-Oct-20 20:32 34.589333 -117.375012 213 2866ft 0kts
12-Oct-20 20:33 34.589333 -117.375012 213 2866ft 0kts

Navigation Log

Ident Type
Flight plan parsing failed, navigation log unavailable